sensor_id;sensor_type;location;lat;lon;timestamp;P1;durP1;ratioP1;P2;durP2;ratioP2
55423;SDS011;41294;42.666;23.350;2023-12-20T00:00:55;43.60;;;30.33;;
55423;SDS011;41294;42.666;23.350;2023-12-20T00:03:21;39.23;;;28.27;;
55423;SDS011;41294;42.666;23.350;2023-12-20T00:05:47;41.00;;;27.30;;
55423;SDS011;41294;42.666;23.350;2023-12-20T00:08:12;42.70;;;27.20;;
55423;SDS011;41294;42.666;23.350;2023-12-20T00:10:38;38.87;;;27.47;;
55423;SDS011;41294;42.666;23.350;2023-12-20T00:13:03;43.60;;;27.50;;
55423;SDS011;41294;42.666;23.350;2023-12-20T00:15:29;40.67;;;28.40;;
55423;SDS011;41294;42.666;23.350;2023-12-20T00:17:54;39.40;;;27.70;;
55423;SDS011;41294;42.666;23.350;2023-12-20T00:20:20;35.70;;;26.27;;
55423;SDS011;41294;42.666;23.350;2023-12-20T00:22:45;40.60;;;28.00;;
55423;SDS011;41294;42.666;23.350;2023-12-20T00:25:11;40.03;;;27.87;;
55423;SDS011;41294;42.666;23.350;2023-12-20T00:27:36;38.93;;;27.43;;
55423;SDS011;41294;42.666;23.350;2023-12-20T00:30:02;42.23;;;27.20;;
55423;SDS011;41294;42.666;23.350;2023-12-20T00:32:27;39.13;;;27.67;;
55423;SDS011;41294;42.666;23.350;2023-12-20T00:34:53;39.23;;;25.83;;
55423;SDS011;41294;42.666;23.350;2023-12-20T00:37:19;38.77;;;25.93;;
55423;SDS011;41294;42.666;23.350;2023-12-20T00:39:45;38.10;;;27.30;;
55423;SDS011;41294;42.666;23.350;2023-12-20T00:42:10;38.97;;;26.97;;
55423;SDS011;41294;42.666;23.350;2023-12-20T00:44:36;42.27;;;26.50;;
55423;SDS011;41294;42.666;23.350;2023-12-20T00:47:01;40.63;;;26.17;;
55423;SDS011;41294;42.666;23.350;2023-12-20T00:49:27;34.93;;;26.47;;
55423;SDS011;41294;42.666;23.350;2023-12-20T00:51:52;40.57;;;28.17;;
55423;SDS011;41294;42.666;23.350;2023-12-20T00:54:18;39.30;;;26.60;;
55423;SDS011;41294;42.666;23.350;2023-12-20T00:56:43;37.97;;;26.37;;
55423;SDS011;41294;42.666;23.350;2023-12-20T00:59:09;37.73;;;27.03;;
55423;SDS011;41294;42.666;23.350;2023-12-20T01:01:34;42.97;;;27.57;;
55423;SDS011;41294;42.666;23.350;2023-12-20T01:04:00;41.30;;;26.97;;
55423;SDS011;41294;42.666;23.350;2023-12-20T01:06:26;41.27;;;27.07;;
55423;SDS011;41294;42.666;23.350;2023-12-20T01:08:51;43.67;;;28.93;;
55423;SDS011;41294;42.666;23.350;2023-12-20T01:11:17;41.70;;;27.13;;
55423;SDS011;41294;42.666;23.350;2023-12-20T01:13:42;44.20;;;29.43;;
55423;SDS011;41294;42.666;23.350;2023-12-20T01:16:11;39.63;;;28.77;;
55423;SDS011;41294;42.666;23.350;2023-12-20T01:18:37;42.93;;;28.30;;
55423;SDS011;41294;42.666;23.350;2023-12-20T01:21:03;44.43;;;28.73;;
55423;SDS011;41294;42.666;23.350;2023-12-20T01:23:30;43.03;;;29.73;;
55423;SDS011;41294;42.666;23.350;2023-12-20T01:25:55;40.60;;;28.47;;
55423;SDS011;41294;42.666;23.350;2023-12-20T01:28:21;43.57;;;28.83;;
55423;SDS011;41294;42.666;23.350;2023-12-20T01:30:47;42.70;;;28.77;;
55423;SDS011;41294;42.666;23.350;2023-12-20T01:33:12;45.77;;;31.03;;
55423;SDS011;41294;42.666;23.350;2023-12-20T01:35:38;43.97;;;30.90;;
55423;SDS011;41294;42.666;23.350;2023-12-20T01:38:03;45.03;;;29.73;;
55423;SDS011;41294;42.666;23.350;2023-12-20T01:40:29;41.30;;;28.40;;
55423;SDS011;41294;42.666;23.350;2023-12-20T01:43:07;43.87;;;29.13;;
55423;SDS011;41294;42.666;23.350;2023-12-20T01:45:34;42.23;;;28.93;;
55423;SDS011;41294;42.666;23.350;2023-12-20T01:47:59;44.60;;;30.23;;
55423;SDS011;41294;42.666;23.350;2023-12-20T01:50:28;44.87;;;29.63;;
55423;SDS011;41294;42.666;23.350;2023-12-20T01:52:54;43.10;;;30.47;;
55423;SDS011;41294;42.666;23.350;2023-12-20T01:55:23;44.00;;;29.90;;
55423;SDS011;41294;42.666;23.350;2023-12-20T01:57:49;48.03;;;30.87;;
55423;SDS011;41294;42.666;23.350;2023-12-20T02:00:16;44.57;;;31.07;;
55423;SDS011;41294;42.666;23.350;2023-12-20T02:02:43;45.20;;;31.47;;
55423;SDS011;41294;42.666;23.350;2023-12-20T02:05:10;46.03;;;31.47;;
55423;SDS011;41294;42.666;23.350;2023-12-20T02:07:36;49.43;;;32.53;;
55423;SDS011;41294;42.666;23.350;2023-12-20T02:10:02;47.47;;;31.17;;
55423;SDS011;41294;42.666;23.350;2023-12-20T02:12:29;45.77;;;32.17;;
55423;SDS011;41294;42.666;23.350;2023-12-20T02:14:54;48.93;;;32.80;;
55423;SDS011;41294;42.666;23.350;2023-12-20T02:17:20;42.07;;;29.93;;
55423;SDS011;41294;42.666;23.350;2023-12-20T02:19:45;47.70;;;32.00;;
55423;SDS011;41294;42.666;23.350;2023-12-20T02:22:11;47.10;;;32.03;;
55423;SDS011;41294;42.666;23.350;2023-12-20T02:24:38;45.77;;;31.57;;
55423;SDS011;41294;42.666;23.350;2023-12-20T02:27:05;49.63;;;32.00;;
55423;SDS011;41294;42.666;23.350;2023-12-20T02:29:32;46.23;;;32.13;;
55423;SDS011;41294;42.666;23.350;2023-12-20T02:31:58;48.23;;;32.47;;
55423;SDS011;41294;42.666;23.350;2023-12-20T02:34:24;49.27;;;32.80;;
55423;SDS011;41294;42.666;23.350;2023-12-20T02:36:49;51.33;;;33.37;;
55423;SDS011;41294;42.666;23.350;2023-12-20T02:39:15;49.03;;;32.63;;
55423;SDS011;41294;42.666;23.350;2023-12-20T02:41:41;48.30;;;31.57;;
55423;SDS011;41294;42.666;23.350;2023-12-20T02:44:06;46.80;;;31.53;;
55423;SDS011;41294;42.666;23.350;2023-12-20T02:46:31;69.87;;;44.47;;
55423;SDS011;41294;42.666;23.350;2023-12-20T02:48:57;140.37;;;94.07;;
55423;SDS011;41294;42.666;23.350;2023-12-20T02:51:22;120.80;;;80.80;;
55423;SDS011;41294;42.666;23.350;2023-12-20T02:53:48;118.87;;;81.27;;
55423;SDS011;41294;42.666;23.350;2023-12-20T02:56:13;73.43;;;46.13;;
55423;SDS011;41294;42.666;23.350;2023-12-20T02:58:39;142.17;;;97.17;;
55423;SDS011;41294;42.666;23.350;2023-12-20T03:01:05;142.73;;;94.97;;
55423;SDS011;41294;42.666;23.350;2023-12-20T03:03:31;141.77;;;93.30;;
55423;SDS011;41294;42.666;23.350;2023-12-20T03:05:57;151.93;;;100.27;;
55423;SDS011;41294;42.666;23.350;2023-12-20T03:08:23;144.63;;;97.10;;
55423;SDS011;41294;42.666;23.350;2023-12-20T03:10:49;140.33;;;94.33;;
55423;SDS011;41294;42.666;23.350;2023-12-20T03:13:15;130.17;;;89.13;;
55423;SDS011;41294;42.666;23.350;2023-12-20T03:15:40;143.37;;;91.50;;
55423;SDS011;41294;42.666;23.350;2023-12-20T03:18:06;146.53;;;90.90;;
55423;SDS011;41294;42.666;23.350;2023-12-20T03:20:31;148.13;;;95.57;;
55423;SDS011;41294;42.666;23.350;2023-12-20T03:22:59;132.80;;;89.10;;
55423;SDS011;41294;42.666;23.350;2023-12-20T03:25:25;132.20;;;86.53;;
55423;SDS011;41294;42.666;23.350;2023-12-20T03:27:51;137.10;;;89.73;;
55423;SDS011;41294;42.666;23.350;2023-12-20T03:30:16;121.27;;;79.47;;
55423;SDS011;41294;42.666;23.350;2023-12-20T03:32:42;119.80;;;79.47;;
55423;SDS011;41294;42.666;23.350;2023-12-20T03:35:07;107.93;;;73.93;;
55423;SDS011;41294;42.666;23.350;2023-12-20T03:37:33;117.40;;;71.73;;
55423;SDS011;41294;42.666;23.350;2023-12-20T03:39:58;104.13;;;70.50;;
55423;SDS011;41294;42.666;23.350;2023-12-20T03:42:24;111.17;;;71.97;;
55423;SDS011;41294;42.666;23.350;2023-12-20T03:44:49;111.47;;;68.03;;
55423;SDS011;41294;42.666;23.350;2023-12-20T03:47:15;93.40;;;61.53;;
55423;SDS011;41294;42.666;23.350;2023-12-20T03:49:40;97.80;;;63.73;;
55423;SDS011;41294;42.666;23.350;2023-12-20T03:52:06;105.43;;;67.03;;
55423;SDS011;41294;42.666;23.350;2023-12-20T03:54:31;103.50;;;70.57;;
55423;SDS011;41294;42.666;23.350;2023-12-20T03:56:57;100.80;;;67.40;;
55423;SDS011;41294;42.666;23.350;2023-12-20T03:59:22;100.73;;;67.70;;
55423;SDS011;41294;42.666;23.350;2023-12-20T04:01:47;103.77;;;69.50;;
55423;SDS011;41294;42.666;23.350;2023-12-20T04:04:13;97.80;;;66.30;;
55423;SDS011;41294;42.666;23.350;2023-12-20T04:06:39;93.97;;;62.53;;
55423;SDS011;41294;42.666;23.350;2023-12-20T04:09:05;87.20;;;57.77;;
55423;SDS011;41294;42.666;23.350;2023-12-20T04:11:30;84.40;;;55.40;;
55423;SDS011;41294;42.666;23.350;2023-12-20T04:13:56;76.30;;;54.03;;
55423;SDS011;41294;42.666;23.350;2023-12-20T04:16:21;69.60;;;48.10;;
55423;SDS011;41294;42.666;23.350;2023-12-20T04:18:47;75.80;;;49.70;;
55423;SDS011;41294;42.666;23.350;2023-12-20T04:21:12;78.17;;;52.03;;
55423;SDS011;41294;42.666;23.350;2023-12-20T04:23:38;80.03;;;52.17;;
55423;SDS011;41294;42.666;23.350;2023-12-20T04:26:03;75.77;;;52.13;;
55423;SDS011;41294;42.666;23.350;2023-12-20T04:28:28;78.17;;;51.23;;
55423;SDS011;41294;42.666;23.350;2023-12-20T04:30:57;78.27;;;52.30;;
55423;SDS011;41294;42.666;23.350;2023-12-20T04:33:22;81.63;;;54.37;;
55423;SDS011;41294;42.666;23.350;2023-12-20T04:35:48;87.30;;;57.07;;
55423;SDS011;41294;42.666;23.350;2023-12-20T04:38:13;85.73;;;55.40;;
55423;SDS011;41294;42.666;23.350;2023-12-20T04:40:39;80.37;;;54.07;;
55423;SDS011;41294;42.666;23.350;2023-12-20T04:43:06;77.93;;;53.67;;
55423;SDS011;41294;42.666;23.350;2023-12-20T04:45:32;91.63;;;60.70;;
55423;SDS011;41294;42.666;23.350;2023-12-20T04:47:57;106.03;;;63.87;;
55423;SDS011;41294;42.666;23.350;2023-12-20T04:50:23;90.97;;;58.17;;
55423;SDS011;41294;42.666;23.350;2023-12-20T04:52:48;84.83;;;56.77;;
55423;SDS011;41294;42.666;23.350;2023-12-20T04:55:14;88.90;;;58.17;;
55423;SDS011;41294;42.666;23.350;2023-12-20T04:57:39;88.90;;;57.63;;
55423;SDS011;41294;42.666;23.350;2023-12-20T05:00:05;94.47;;;60.93;;
55423;SDS011;41294;42.666;23.350;2023-12-20T05:02:33;85.90;;;56.57;;
55423;SDS011;41294;42.666;23.350;2023-12-20T05:04:59;91.87;;;57.93;;
55423;SDS011;41294;42.666;23.350;2023-12-20T05:07:24;117.27;;;70.50;;
55423;SDS011;41294;42.666;23.350;2023-12-20T05:09:50;98.60;;;64.93;;
55423;SDS011;41294;42.666;23.350;2023-12-20T05:12:15;120.23;;;70.20;;
55423;SDS011;41294;42.666;23.350;2023-12-20T05:14:41;109.73;;;63.03;;
55423;SDS011;41294;42.666;23.350;2023-12-20T05:17:06;106.13;;;62.37;;
55423;SDS011;41294;42.666;23.350;2023-12-20T05:19:32;109.17;;;62.33;;
55423;SDS011;41294;42.666;23.350;2023-12-20T05:22:00;144.20;;;63.27;;
55423;SDS011;41294;42.666;23.350;2023-12-20T05:24:26;104.43;;;58.60;;
55423;SDS011;41294;42.666;23.350;2023-12-20T05:26:52;105.20;;;61.77;;
55423;SDS011;41294;42.666;23.350;2023-12-20T05:29:17;135.67;;;67.03;;
55423;SDS011;41294;42.666;23.350;2023-12-20T05:31:43;113.73;;;63.93;;
55423;SDS011;41294;42.666;23.350;2023-12-20T05:34:08;151.60;;;69.47;;
55423;SDS011;41294;42.666;23.350;2023-12-20T05:36:34;139.33;;;62.87;;
55423;SDS011;41294;42.666;23.350;2023-12-20T05:38:59;168.97;;;72.73;;
55423;SDS011;41294;42.666;23.350;2023-12-20T05:41:25;151.30;;;68.47;;
55423;SDS011;41294;42.666;23.350;2023-12-20T05:43:50;151.67;;;66.27;;
55423;SDS011;41294;42.666;23.350;2023-12-20T05:46:15;140.03;;;64.27;;
55423;SDS011;41294;42.666;23.350;2023-12-20T05:48:41;186.30;;;65.83;;
55423;SDS011;41294;42.666;23.350;2023-12-20T05:51:07;111.50;;;61.57;;
55423;SDS011;41294;42.666;23.350;2023-12-20T05:53:33;129.83;;;61.77;;
55423;SDS011;41294;42.666;23.350;2023-12-20T05:55:58;175.93;;;66.67;;
55423;SDS011;41294;42.666;23.350;2023-12-20T05:58:24;132.00;;;61.47;;
55423;SDS011;41294;42.666;23.350;2023-12-20T06:00:50;93.07;;;52.83;;
55423;SDS011;41294;42.666;23.350;2023-12-20T06:03:15;97.97;;;53.57;;
55423;SDS011;41294;42.666;23.350;2023-12-20T06:05:41;87.10;;;53.37;;
55423;SDS011;41294;42.666;23.350;2023-12-20T06:08:06;84.03;;;50.97;;
55423;SDS011;41294;42.666;23.350;2023-12-20T06:10:32;80.57;;;51.27;;
55423;SDS011;41294;42.666;23.350;2023-12-20T06:12:57;81.47;;;48.57;;
55423;SDS011;41294;42.666;23.350;2023-12-20T06:15:24;81.13;;;47.17;;
55423;SDS011;41294;42.666;23.350;2023-12-20T06:17:49;73.63;;;45.70;;
55423;SDS011;41294;42.666;23.350;2023-12-20T06:20:15;73.40;;;44.60;;
55423;SDS011;41294;42.666;23.350;2023-12-20T06:22:40;75.23;;;45.57;;
55423;SDS011;41294;42.666;23.350;2023-12-20T06:25:06;76.23;;;43.90;;
55423;SDS011;41294;42.666;23.350;2023-12-20T06:27:32;62.00;;;40.03;;
55423;SDS011;41294;42.666;23.350;2023-12-20T06:29:57;65.13;;;42.63;;
55423;SDS011;41294;42.666;23.350;2023-12-20T06:32:24;70.70;;;43.47;;
55423;SDS011;41294;42.666;23.350;2023-12-20T06:34:49;64.40;;;41.87;;
55423;SDS011;41294;42.666;23.350;2023-12-20T06:37:15;65.40;;;41.67;;
55423;SDS011;41294;42.666;23.350;2023-12-20T06:39:40;66.43;;;41.83;;
55423;SDS011;41294;42.666;23.350;2023-12-20T06:42:06;66.73;;;42.63;;
55423;SDS011;41294;42.666;23.350;2023-12-20T06:44:31;62.47;;;39.90;;
55423;SDS011;41294;42.666;23.350;2023-12-20T06:46:57;65.07;;;41.43;;
55423;SDS011;41294;42.666;23.350;2023-12-20T06:49:23;61.87;;;40.20;;
55423;SDS011;41294;42.666;23.350;2023-12-20T06:51:48;67.63;;;42.00;;
55423;SDS011;41294;42.666;23.350;2023-12-20T06:54:14;69.20;;;43.10;;
55423;SDS011;41294;42.666;23.350;2023-12-20T06:56:39;71.17;;;41.90;;
55423;SDS011;41294;42.666;23.350;2023-12-20T06:59:06;65.13;;;40.13;;
55423;SDS011;41294;42.666;23.350;2023-12-20T07:01:31;63.40;;;41.80;;
55423;SDS011;41294;42.666;23.350;2023-12-20T07:03:57;58.37;;;38.30;;
55423;SDS011;41294;42.666;23.350;2023-12-20T07:06:22;62.80;;;42.53;;
55423;SDS011;41294;42.666;23.350;2023-12-20T07:08:49;61.93;;;40.43;;
55423;SDS011;41294;42.666;23.350;2023-12-20T07:11:15;64.87;;;41.20;;
55423;SDS011;41294;42.666;23.350;2023-12-20T07:13:40;68.63;;;42.77;;
55423;SDS011;41294;42.666;23.350;2023-12-20T07:16:07;66.23;;;43.60;;
55423;SDS011;41294;42.666;23.350;2023-12-20T07:18:32;65.00;;;45.20;;
55423;SDS011;41294;42.666;23.350;2023-12-20T07:20:58;68.97;;;47.83;;
55423;SDS011;41294;42.666;23.350;2023-12-20T07:23:23;69.90;;;47.73;;
55423;SDS011;41294;42.666;23.350;2023-12-20T07:25:50;71.03;;;49.07;;
55423;SDS011;41294;42.666;23.350;2023-12-20T07:28:16;70.77;;;48.93;;
55423;SDS011;41294;42.666;23.350;2023-12-20T07:30:41;75.07;;;50.30;;
55423;SDS011;41294;42.666;23.350;2023-12-20T07:33:07;71.23;;;51.33;;
55423;SDS011;41294;42.666;23.350;2023-12-20T07:35:34;68.90;;;50.10;;
55423;SDS011;41294;42.666;23.350;2023-12-20T07:37:59;69.83;;;49.53;;
55423;SDS011;41294;42.666;23.350;2023-12-20T07:40:25;71.07;;;49.10;;
55423;SDS011;41294;42.666;23.350;2023-12-20T07:42:51;72.33;;;49.30;;
55423;SDS011;41294;42.666;23.350;2023-12-20T07:45:16;72.37;;;49.70;;
55423;SDS011;41294;42.666;23.350;2023-12-20T07:47:42;67.40;;;49.17;;
55423;SDS011;41294;42.666;23.350;2023-12-20T07:50:07;67.10;;;48.17;;
55423;SDS011;41294;42.666;23.350;2023-12-20T07:52:33;59.77;;;41.33;;
55423;SDS011;41294;42.666;23.350;2023-12-20T07:54:58;54.60;;;37.53;;
55423;SDS011;41294;42.666;23.350;2023-12-20T07:57:24;60.73;;;39.60;;
55423;SDS011;41294;42.666;23.350;2023-12-20T07:59:49;51.50;;;34.40;;
55423;SDS011;41294;42.666;23.350;2023-12-20T08:02:15;59.00;;;39.30;;
55423;SDS011;41294;42.666;23.350;2023-12-20T08:04:40;62.03;;;40.40;;
55423;SDS011;41294;42.666;23.350;2023-12-20T08:07:06;67.17;;;41.07;;
55423;SDS011;41294;42.666;23.350;2023-12-20T08:09:33;60.93;;;39.33;;
55423;SDS011;41294;42.666;23.350;2023-12-20T08:12:01;63.90;;;39.77;;
55423;SDS011;41294;42.666;23.350;2023-12-20T08:14:27;57.83;;;37.27;;
55423;SDS011;41294;42.666;23.350;2023-12-20T08:16:52;63.53;;;39.47;;
55423;SDS011;41294;42.666;23.350;2023-12-20T08:19:18;54.27;;;37.67;;
55423;SDS011;41294;42.666;23.350;2023-12-20T08:21:43;61.40;;;39.07;;
55423;SDS011;41294;42.666;23.350;2023-12-20T08:24:09;56.30;;;36.67;;
55423;SDS011;41294;42.666;23.350;2023-12-20T08:26:34;61.93;;;36.43;;
55423;SDS011;41294;42.666;23.350;2023-12-20T08:29:01;53.57;;;35.30;;
55423;SDS011;41294;42.666;23.350;2023-12-20T08:31:26;57.23;;;35.90;;
55423;SDS011;41294;42.666;23.350;2023-12-20T08:33:52;52.17;;;33.63;;
55423;SDS011;41294;42.666;23.350;2023-12-20T08:36:19;49.63;;;33.13;;
55423;SDS011;41294;42.666;23.350;2023-12-20T08:38:46;54.37;;;35.83;;
55423;SDS011;41294;42.666;23.350;2023-12-20T08:41:12;55.60;;;35.10;;
55423;SDS011;41294;42.666;23.350;2023-12-20T08:43:37;56.10;;;34.13;;
55423;SDS011;41294;42.666;23.350;2023-12-20T08:46:05;67.80;;;38.27;;
55423;SDS011;41294;42.666;23.350;2023-12-20T08:48:31;61.53;;;34.80;;
55423;SDS011;41294;42.666;23.350;2023-12-20T08:50:57;60.43;;;37.10;;
55423;SDS011;41294;42.666;23.350;2023-12-20T08:53:22;71.37;;;41.97;;
55423;SDS011;41294;42.666;23.350;2023-12-20T08:55:48;71.13;;;42.30;;
55423;SDS011;41294;42.666;23.350;2023-12-20T08:58:13;77.10;;;44.13;;
55423;SDS011;41294;42.666;23.350;2023-12-20T09:00:39;78.07;;;44.87;;
55423;SDS011;41294;42.666;23.350;2023-12-20T09:03:05;68.47;;;41.10;;
55423;SDS011;41294;42.666;23.350;2023-12-20T09:05:30;77.23;;;45.13;;
55423;SDS011;41294;42.666;23.350;2023-12-20T09:07:56;90.53;;;47.17;;
55423;SDS011;41294;42.666;23.350;2023-12-20T09:10:22;90.60;;;48.57;;
55423;SDS011;41294;42.666;23.350;2023-12-20T09:12:50;100.23;;;49.10;;
55423;SDS011;41294;42.666;23.350;2023-12-20T09:15:21;92.93;;;49.13;;
55423;SDS011;41294;42.666;23.350;2023-12-20T09:17:47;87.80;;;45.67;;
55423;SDS011;41294;42.666;23.350;2023-12-20T09:20:12;81.03;;;46.13;;
55423;SDS011;41294;42.666;23.350;2023-12-20T09:22:38;92.93;;;47.50;;
55423;SDS011;41294;42.666;23.350;2023-12-20T09:25:05;83.40;;;44.70;;
55423;SDS011;41294;42.666;23.350;2023-12-20T09:27:30;99.57;;;49.77;;
55423;SDS011;41294;42.666;23.350;2023-12-20T09:29:57;93.27;;;48.67;;
55423;SDS011;41294;42.666;23.350;2023-12-20T09:32:22;103.73;;;51.93;;
55423;SDS011;41294;42.666;23.350;2023-12-20T09:34:48;105.47;;;50.40;;
55423;SDS011;41294;42.666;23.350;2023-12-20T09:37:13;111.90;;;55.17;;
55423;SDS011;41294;42.666;23.350;2023-12-20T09:39:39;110.83;;;52.10;;
55423;SDS011;41294;42.666;23.350;2023-12-20T09:42:05;108.63;;;50.43;;
55423;SDS011;41294;42.666;23.350;2023-12-20T09:44:32;110.33;;;53.47;;
55423;SDS011;41294;42.666;23.350;2023-12-20T09:46:59;101.40;;;52.27;;
55423;SDS011;41294;42.666;23.350;2023-12-20T09:49:28;110.53;;;53.73;;
55423;SDS011;41294;42.666;23.350;2023-12-20T09:51:56;119.23;;;54.90;;
55423;SDS011;41294;42.666;23.350;2023-12-20T09:54:21;112.77;;;53.27;;
55423;SDS011;41294;42.666;23.350;2023-12-20T09:56:49;114.27;;;53.37;;
55423;SDS011;41294;42.666;23.350;2023-12-20T09:59:15;107.10;;;52.70;;
55423;SDS011;41294;42.666;23.350;2023-12-20T10:01:40;121.83;;;57.47;;
55423;SDS011;41294;42.666;23.350;2023-12-20T10:04:08;103.87;;;51.97;;
55423;SDS011;41294;42.666;23.350;2023-12-20T10:06:43;103.70;;;52.07;;
55423;SDS011;41294;42.666;23.350;2023-12-20T10:09:09;96.97;;;49.93;;
55423;SDS011;41294;42.666;23.350;2023-12-20T10:11:36;102.23;;;51.10;;
55423;SDS011;41294;42.666;23.350;2023-12-20T10:14:02;99.83;;;49.03;;
55423;SDS011;41294;42.666;23.350;2023-12-20T10:16:28;85.50;;;47.47;;
55423;SDS011;41294;42.666;23.350;2023-12-20T10:18:56;96.43;;;50.57;;
55423;SDS011;41294;42.666;23.350;2023-12-20T10:21:22;88.50;;;48.80;;
55423;SDS011;41294;42.666;23.350;2023-12-20T10:23:49;85.43;;;46.80;;
55423;SDS011;41294;42.666;23.350;2023-12-20T10:26:21;79.47;;;46.27;;
55423;SDS011;41294;42.666;23.350;2023-12-20T10:28:50;85.70;;;47.33;;
55423;SDS011;41294;42.666;23.350;2023-12-20T10:31:34;74.43;;;44.37;;
55423;SDS011;41294;42.666;23.350;2023-12-20T10:34:00;81.00;;;48.00;;
55423;SDS011;41294;42.666;23.350;2023-12-20T10:36:27;81.43;;;45.83;;
55423;SDS011;41294;42.666;23.350;2023-12-20T10:38:54;74.83;;;45.37;;
55423;SDS011;41294;42.666;23.350;2023-12-20T10:41:26;80.07;;;47.43;;
55423;SDS011;41294;42.666;23.350;2023-12-20T10:44:00;84.23;;;49.50;;
55423;SDS011;41294;42.666;23.350;2023-12-20T10:46:27;87.33;;;50.33;;
55423;SDS011;41294;42.666;23.350;2023-12-20T10:48:55;84.17;;;48.87;;
55423;SDS011;41294;42.666;23.350;2023-12-20T10:51:22;81.47;;;48.67;;
55423;SDS011;41294;42.666;23.350;2023-12-20T10:53:51;84.13;;;49.50;;
55423;SDS011;41294;42.666;23.350;2023-12-20T10:56:18;86.53;;;50.63;;
55423;SDS011;41294;42.666;23.350;2023-12-20T10:58:45;91.60;;;51.03;;
55423;SDS011;41294;42.666;23.350;2023-12-20T11:01:12;91.87;;;52.57;;
55423;SDS011;41294;42.666;23.350;2023-12-20T11:03:42;86.83;;;51.17;;
55423;SDS011;41294;42.666;23.350;2023-12-20T11:14:47;97.60;;;52.87;;
55423;SDS011;41294;42.666;23.350;2023-12-20T11:17:14;89.73;;;49.00;;
55423;SDS011;41294;42.666;23.350;2023-12-20T11:22:27;98.27;;;52.90;;
55423;SDS011;41294;42.666;23.350;2023-12-20T11:25:29;86.53;;;48.47;;
55423;SDS011;41294;42.666;23.350;2023-12-20T11:28:10;99.63;;;51.63;;
55423;SDS011;41294;42.666;23.350;2023-12-20T11:30:45;95.57;;;52.47;;
55423;SDS011;41294;42.666;23.350;2023-12-20T11:33:15;99.07;;;53.47;;
55423;SDS011;41294;42.666;23.350;2023-12-20T11:35:41;98.30;;;54.60;;
55423;SDS011;41294;42.666;23.350;2023-12-20T11:38:08;93.13;;;52.27;;
55423;SDS011;41294;42.666;23.350;2023-12-20T11:40:35;102.50;;;56.47;;
55423;SDS011;41294;42.666;23.350;2023-12-20T11:43:02;97.63;;;52.80;;
55423;SDS011;41294;42.666;23.350;2023-12-20T11:45:28;96.20;;;52.40;;
55423;SDS011;41294;42.666;23.350;2023-12-20T11:47:56;91.47;;;51.47;;
55423;SDS011;41294;42.666;23.350;2023-12-20T11:50:22;99.00;;;52.97;;
55423;SDS011;41294;42.666;23.350;2023-12-20T11:52:49;97.60;;;54.87;;
55423;SDS011;41294;42.666;23.350;2023-12-20T11:55:17;96.60;;;53.23;;
55423;SDS011;41294;42.666;23.350;2023-12-20T11:57:42;102.80;;;59.03;;
55423;SDS011;41294;42.666;23.350;2023-12-20T12:00:09;104.47;;;55.33;;
55423;SDS011;41294;42.666;23.350;2023-12-20T12:02:35;109.50;;;58.00;;
55423;SDS011;41294;42.666;23.350;2023-12-20T12:05:00;110.37;;;56.43;;
55423;SDS011;41294;42.666;23.350;2023-12-20T12:07:26;104.53;;;54.10;;
55423;SDS011;41294;42.666;23.350;2023-12-20T12:09:51;100.13;;;53.87;;
55423;SDS011;41294;42.666;23.350;2023-12-20T12:12:17;96.50;;;55.67;;
55423;SDS011;41294;42.666;23.350;2023-12-20T12:14:44;107.40;;;56.73;;
55423;SDS011;41294;42.666;23.350;2023-12-20T12:17:11;111.97;;;58.93;;
55423;SDS011;41294;42.666;23.350;2023-12-20T12:19:39;106.60;;;58.07;;
55423;SDS011;41294;42.666;23.350;2023-12-20T12:24:44;98.50;;;54.90;;
55423;SDS011;41294;42.666;23.350;2023-12-20T12:27:12;97.40;;;53.33;;
55423;SDS011;41294;42.666;23.350;2023-12-20T12:29:38;99.73;;;53.67;;
55423;SDS011;41294;42.666;23.350;2023-12-20T12:32:05;94.33;;;52.60;;
55423;SDS011;41294;42.666;23.350;2023-12-20T12:34:34;98.60;;;54.13;;
55423;SDS011;41294;42.666;23.350;2023-12-20T12:37:01;94.83;;;52.07;;
55423;SDS011;41294;42.666;23.350;2023-12-20T12:39:28;89.27;;;50.70;;
55423;SDS011;41294;42.666;23.350;2023-12-20T12:41:56;83.20;;;49.87;;
55423;SDS011;41294;42.666;23.350;2023-12-20T12:44:22;82.57;;;49.83;;
55423;SDS011;41294;42.666;23.350;2023-12-20T12:46:50;85.80;;;48.50;;
55423;SDS011;41294;42.666;23.350;2023-12-20T12:49:16;89.53;;;50.63;;
55423;SDS011;41294;42.666;23.350;2023-12-20T12:51:42;95.30;;;54.03;;
55423;SDS011;41294;42.666;23.350;2023-12-20T12:54:08;105.67;;;55.97;;
55423;SDS011;41294;42.666;23.350;2023-12-20T12:56:35;90.97;;;52.30;;
55423;SDS011;41294;42.666;23.350;2023-12-20T12:59:01;89.73;;;50.90;;
55423;SDS011;41294;42.666;23.350;2023-12-20T13:01:27;112.67;;;56.33;;
55423;SDS011;41294;42.666;23.350;2023-12-20T13:03:53;99.40;;;54.07;;
55423;SDS011;41294;42.666;23.350;2023-12-20T13:06:19;103.63;;;58.57;;
55423;SDS011;41294;42.666;23.350;2023-12-20T13:08:45;107.97;;;57.30;;
55423;SDS011;41294;42.666;23.350;2023-12-20T13:11:10;107.60;;;57.67;;
55423;SDS011;41294;42.666;23.350;2023-12-20T13:13:36;123.80;;;59.93;;
55423;SDS011;41294;42.666;23.350;2023-12-20T13:16:01;122.23;;;63.27;;
55423;SDS011;41294;42.666;23.350;2023-12-20T13:18:27;122.63;;;62.60;;
55423;SDS011;41294;42.666;23.350;2023-12-20T13:20:52;118.40;;;61.03;;
55423;SDS011;41294;42.666;23.350;2023-12-20T13:23:18;123.27;;;60.47;;
55423;SDS011;41294;42.666;23.350;2023-12-20T13:25:43;122.90;;;62.17;;
55423;SDS011;41294;42.666;23.350;2023-12-20T13:28:12;115.97;;;59.33;;
55423;SDS011;41294;42.666;23.350;2023-12-20T13:30:38;107.83;;;58.10;;
55423;SDS011;41294;42.666;23.350;2023-12-20T13:33:04;120.67;;;59.57;;
55423;SDS011;41294;42.666;23.350;2023-12-20T13:35:31;117.10;;;59.23;;
55423;SDS011;41294;42.666;23.350;2023-12-20T13:37:57;105.47;;;54.80;;
55423;SDS011;41294;42.666;23.350;2023-12-20T13:40:23;110.00;;;55.97;;
55423;SDS011;41294;42.666;23.350;2023-12-20T13:42:48;107.93;;;57.27;;
55423;SDS011;41294;42.666;23.350;2023-12-20T13:45:14;111.53;;;57.30;;
55423;SDS011;41294;42.666;23.350;2023-12-20T13:47:40;116.43;;;56.20;;
55423;SDS011;41294;42.666;23.350;2023-12-20T13:50:05;111.27;;;56.43;;
55423;SDS011;41294;42.666;23.350;2023-12-20T13:52:31;118.77;;;56.60;;
55423;SDS011;41294;42.666;23.350;2023-12-20T13:54:56;122.40;;;60.47;;
55423;SDS011;41294;42.666;23.350;2023-12-20T13:57:22;115.97;;;57.13;;
55423;SDS011;41294;42.666;23.350;2023-12-20T13:59:47;111.93;;;54.20;;
55423;SDS011;41294;42.666;23.350;2023-12-20T14:02:13;100.67;;;53.60;;
55423;SDS011;41294;42.666;23.350;2023-12-20T14:04:38;110.50;;;55.17;;
55423;SDS011;41294;42.666;23.350;2023-12-20T14:07:04;106.93;;;54.07;;
55423;SDS011;41294;42.666;23.350;2023-12-20T14:09:30;117.50;;;55.90;;
55423;SDS011;41294;42.666;23.350;2023-12-20T14:11:56;95.80;;;52.10;;
55423;SDS011;41294;42.666;23.350;2023-12-20T14:14:21;102.07;;;52.43;;